Time;durP1;ratioP1;P1;durP2;ratioP2;P2;SDS_P1;SDS_P2;PMS_P1;PMS_P2;Temp;Humidity;BMP_temperature;BMP_pressure;BME280_temperature;BME280_humidity;BME280_pressure;Samples;Min_cycle;Max_cycle;Signal;HPM_P1;HPM_P2
2022/04/06 00:02:12;;;;;;;13.52;7.70;;;;;;;4.60;75.81;96999.09;6104865;23;20013;-90
2022/04/06 00:04:37;;;;;;;18.17;9.05;;;;;;;4.74;75.88;97025.75;6105045;23;20006;-91
2022/04/06 00:07:04;;;;;;;12.52;7.35;;;;;;;4.64;76.02;97013.91;6233299;22;20002;-90
2022/04/06 00:09:30;;;;;;;12.70;6.97;;;;;;;4.62;75.88;97015.75;6104997;23;20009;-91
2022/04/06 00:11:55;;;;;;;12.30;6.60;;;;;;;4.52;75.35;97009.19;6106030;23;20097;-89
2022/04/06 00:14:21;;;;;;;9.13;5.72;;;;;;;4.39;74.58;97008.03;6105172;23;20065;-88
2022/04/06 00:16:47;;;;;;;10.77;6.13;;;;;;;4.53;74.66;97042.66;6105012;23;20010;-90
2022/04/06 00:19:12;;;;;;;9.60;5.82;;;;;;;4.48;75.04;97027.91;6105932;23;20010;-90
2022/04/06 00:21:38;;;;;;;12.07;5.72;;;;;;;4.51;75.03;97033.94;6108047;23;20442;-91
2022/04/06 00:24:05;;;;;;;14.55;6.32;;;;;;;4.38;74.82;97011.59;6111017;23;20013;-91
2022/04/06 00:26:30;;;;;;;15.98;6.32;;;;;;;4.38;75.06;97023.06;6116559;23;20021;-92
2022/04/06 00:28:58;;;;;;;11.52;6.80;;;;;;;4.39;75.28;97026.56;6118950;23;20009;-89
2022/04/06 00:31:26;;;;;;;17.63;7.05;;;;;;;4.50;75.88;97037.50;6116910;23;20005;-90
2022/04/06 00:33:53;;;;;;;13.65;7.15;;;;;;;4.35;75.93;97022.31;6120643;23;20049;-92
2022/04/06 00:36:20;;;;;;;12.73;6.72;;;;;;;4.39;75.75;97013.31;6141403;23;20002;-91
2022/04/06 00:38:45;;;;;;;13.65;7.20;;;;;;;4.43;75.66;97030.75;6111850;23;20008;-89
2022/04/06 00:41:11;;;;;;;17.75;7.18;;;;;;;4.49;75.79;97034.94;6110408;23;20346;-89
2022/04/06 00:43:36;;;;;;;13.65;7.20;;;;;;;4.30;76.00;97017.25;6110554;23;20091;-89
2022/04/06 00:46:02;;;;;;;15.88;6.60;;;;;;;4.42;76.76;97038.78;6108599;23;20036;-89
2022/04/06 00:48:28;;;;;;;13.10;7.60;;;;;;;4.45;76.50;97050.09;6108981;23;20005;-88
2022/04/06 00:50:54;;;;;;;20.42;8.52;;;;;;;4.24;76.38;97008.72;6110876;23;20059;-90
2022/04/06 00:53:19;;;;;;;15.27;7.85;;;;;;;4.27;77.21;97038.56;6240020;22;20012;-89
2022/04/06 00:55:45;;;;;;;20.70;8.23;;;;;;;4.20;77.33;97001.84;6112911;23;20014;-90
2022/04/06 00:58:11;;;;;;;16.02;8.18;;;;;;;4.35;77.28;97027.63;6113552;23;20025;-89
2022/04/06 01:00:36;;;;;;;15.45;7.55;;;;;;;4.35;77.81;97040.84;6115094;23;20072;-89
2022/04/06 01:03:03;;;;;;;12.10;7.22;;;;;;;4.15;77.76;97001.22;6117304;23;19998;-91
2022/04/06 01:05:29;;;;;;;12.70;6.47;;;;;;;4.34;77.90;97040.00;6119127;23;20069;-91
2022/04/06 01:08:00;;;;;;;17.10;6.88;;;;;;;3.52;77.75;96926.47;6146833;23;19994;-90
2022/04/06 01:10:31;;;;;;;14.48;7.13;;;;;;;3.50;78.57;96944.19;6146144;23;19990;-91
2022/04/06 01:16:20;;;;;;;17.38;7.10;;;;;;;3.94;80.23;97045.34;6148202;23;20005;-90
2022/04/06 01:18:50;;;;;;;13.48;7.70;;;;;;;3.35;80.99;96931.63;6093733;23;20014;-89
2022/04/06 01:21:21;;;;;;;11.80;6.78;;;;;;;3.77;81.38;97014.34;6145959;23;20010;-90
2022/04/06 01:23:47;;;;;;;15.73;7.28;;;;;;;3.20;82.59;96942.84;6119990;23;20006;-89
2022/04/06 01:26:23;;;;;;;17.45;7.65;;;;;;;3.79;83.35;97031.00;6143708;23;20014;-90
2022/04/06 01:28:49;;;;;;;17.13;7.07;;;;;;;3.43;82.47;96984.16;6121734;23;20014;-90
2022/04/06 01:31:16;;;;;;;15.20;6.65;;;;;;;3.13;82.15;96929.06;6112842;23;20028;-88
2022/04/06 01:33:42;;;;;;;12.27;5.65;;;;;;;3.59;82.19;97030.16;6129073;23;20049;-88
2022/04/06 01:36:09;;;;;;;12.50;6.10;;;;;;;2.93;82.70;96930.78;6093252;23;20014;-88
2022/04/06 01:38:39;;;;;;;12.35;5.88;;;;;;;3.54;82.33;96995.97;6117122;23;19990;-89
2022/04/06 01:41:08;;;;;;;10.80;5.65;;;;;;;3.71;82.22;97035.78;6118364;23;20011;-90
2022/04/06 01:43:34;;;;;;;14.48;5.35;;;;;;;3.67;82.53;97043.91;6219275;23;20036;-90
2022/04/06 01:46:01;;;;;;;12.15;5.68;;;;;;;3.09;82.48;96953.00;6117460;23;20006;-90
2022/04/06 01:48:27;;;;;;;9.73;5.70;;;;;;;3.38;82.75;97002.00;6093736;23;20057;-89
2022/04/06 01:53:37;;;;;;;8.98;5.90;;;;;;;3.08;82.90;96940.72;6111556;23;20037;-90
2022/04/06 01:56:03;;;;;;;11.80;5.80;;;;;;;3.01;83.13;96941.91;6112971;23;20420;-91
2022/04/06 01:58:30;;;;;;;9.45;5.53;;;;;;;3.01;83.83;96941.91;6088456;23;20002;-91
2022/04/06 02:01:10;;;;;;;10.45;6.20;;;;;;;3.00;83.65;96948.97;6136728;23;20013;-91
2022/04/06 02:03:36;;;;;;;8.45;5.38;;;;;;;3.61;83.77;97015.94;6087663;23;20040;-90
2022/04/06 02:06:07;;;;;;;11.65;6.38;;;;;;;3.11;83.52;96940.59;6114642;23;20036;-91
2022/04/06 02:08:37;;;;;;;8.43;5.55;;;;;;;3.64;83.99;97029.03;6116128;23;20054;-90
2022/04/06 02:11:03;;;;;;;10.23;5.57;;;;;;;3.28;84.46;96975.09;6091279;23;20011;-90
2022/04/06 02:13:29;;;;;;;10.80;5.72;;;;;;;3.06;83.99;96947.84;6213387;23;20007;-90
2022/04/06 02:15:55;;;;;;;20.17;7.28;;;;;;;3.66;84.35;97039.56;6083009;23;20010;-90
2022/04/06 02:18:22;;;;;;;12.13;6.20;;;;;;;3.41;84.66;97020.38;6106487;23;20006;-90
2022/04/06 02:20:48;;;;;;;10.43;6.05;;;;;;;2.99;84.78;96941.09;6082345;23;20081;-90
2022/04/06 02:23:13;;;;;;;14.45;6.43;;;;;;;3.23;85.12;96991.13;6081308;23;20037;-89
2022/04/06 02:25:39;;;;;;;35.38;8.75;;;;;;;2.87;85.72;96941.63;6106399;23;20002;-89
2022/04/06 02:28:05;;;;;;;16.90;8.05;;;;;;;2.91;85.23;96944.09;6107453;23;20003;-90
2022/04/06 02:30:34;;;;;;;16.35;8.13;;;;;;;3.17;86.10;97009.03;6085745;23;20105;-90
2022/04/06 02:33:00;;;;;;;13.07;6.75;;;;;;;3.22;87.06;97037.00;6080901;23;20023;-90
2022/04/06 02:35:26;;;;;;;11.82;6.32;;;;;;;2.77;87.53;96956.16;6211757;23;20007;-91
2022/04/06 02:37:53;;;;;;;16.30;7.45;;;;;;;3.10;87.07;97011.09;6109546;23;20014;-91
2022/04/06 02:40:18;;;;;;;18.67;7.22;;;;;;;2.70;87.30;96958.16;6086900;23;20022;-91
2022/04/06 02:42:45;;;;;;;18.13;7.43;;;;;;;2.96;87.95;97023.97;6079390;23;20062;-90
2022/04/06 02:45:14;;;;;;;29.38;9.27;;;;;;;2.85;88.61;97009.50;6110772;23;20006;-91
2022/04/06 02:47:43;;;;;;;20.98;9.80;;;;;;;3.02;88.40;97028.16;6130806;23;19999;-90
2022/04/06 02:50:22;;;;;;;21.60;8.27;;;;;;;3.10;88.83;97048.06;6218475;22;20006;-90
2022/04/06 02:53:06;;;;;;;15.60;6.68;;;;;;;2.54;87.45;96963.19;6091838;23;20014;-90
2022/04/06 02:55:39;;;;;;;13.35;6.68;;;;;;;3.12;88.28;97063.84;6090551;23;20006;-89
2022/04/06 02:58:05;;;;;;;17.40;7.77;;;;;;;2.74;89.03;97018.69;6106983;23;20013;-89
2022/04/06 03:00:32;;;;;;;13.57;6.97;;;;;;;2.91;88.59;97027.72;6209031;23;20007;-90
2022/04/06 03:02:58;;;;;;;19.35;7.60;;;;;;;2.99;88.72;97057.31;6106477;23;20007;-89
2022/04/06 03:05:27;;;;;;;10.95;6.35;;;;;;;2.36;89.77;96960.44;6083261;23;20006;-91
2022/04/06 03:07:53;;;;;;;53.30;17.85;;;;;;;2.42;89.97;96973.38;6207611;23;20009;-91
2022/04/06 03:10:19;;;;;;;25.83;9.27;;;;;;;2.46;90.20;96981.09;6083175;23;20362;-91
2022/04/06 03:12:50;;;;;;;16.10;6.97;;;;;;;2.57;90.76;97013.22;6087826;23;20013;-92
2022/04/06 03:15:16;;;;;;;17.25;7.30;;;;;;;2.74;90.22;97034.53;6212417;23;20010;-91
2022/04/06 03:17:45;;;;;;;13.55;7.22;;;;;;;2.92;90.81;97069.06;6110754;23;20006;-91
2022/04/06 03:20:15;;;;;;;12.48;7.30;;;;;;;2.72;90.81;97046.06;6092701;23;20086;-91
2022/04/06 03:22:42;;;;;;;18.42;7.28;;;;;;;2.31;90.60;96965.88;6087961;23;20002;-90
2022/04/06 03:25:08;;;;;;;12.85;6.45;;;;;;;2.31;90.43;96976.41;6211137;23;20014;-91
2022/04/06 03:27:35;;;;;;;13.45;6.85;;;;;;;2.48;90.27;97018.88;6210892;23;20033;-91
2022/04/06 03:30:05;;;;;;;9.77;6.28;;;;;;;2.53;91.47;97034.50;6209139;23;20010;-90
2022/04/06 03:32:31;;;;;;;11.20;6.82;;;;;;;2.29;91.10;96999.38;6079394;23;20033;-88
2022/04/06 03:34:59;;;;;;;18.58;7.50;;;;;;;2.02;91.38;96974.91;6087317;23;20030;-89
2022/04/06 03:37:26;;;;;;;17.40;8.88;;;;;;;2.23;91.32;97004.03;6109709;23;20010;-90
2022/04/06 03:39:52;;;;;;;16.73;8.18;;;;;;;2.13;90.72;96987.69;6109090;23;20010;-90
2022/04/06 03:42:26;;;;;;;15.85;7.90;;;;;;;2.36;90.33;97011.44;6093818;23;20006;-91
2022/04/06 03:44:52;;;;;;;21.67;6.53;;;;;;;2.23;89.22;96988.19;6117142;23;20010;-92
2022/04/06 03:47:26;;;;;;;13.02;6.55;;;;;;;2.17;89.10;96981.38;6116221;23;20033;-91
2022/04/06 03:50:02;;;;;;;16.38;7.40;;;;;;;2.60;89.19;97047.41;6092994;23;20010;-90
2022/04/06 03:55:52;;;;;;;15.02;8.25;;;;;;;2.25;89.15;96992.47;6113841;23;20009;-91
2022/04/06 03:58:56;;;;;;;19.20;9.60;;;;;;;2.34;89.30;97007.13;6089698;23;20030;-91
2022/04/06 04:14:05;;;;;;;32.58;12.40;;;;;;;2.90;89.90;97106.09;6102650;23;20101;-91
2022/04/06 04:16:37;;;;;;;28.85;11.52;;;;;;;2.14;89.81;96987.63;6111226;23;20025;-91
2022/04/06 04:19:03;;;;;;;36.80;13.32;;;;;;;2.44;89.36;97033.09;6109868;23;20017;-89
2022/04/06 04:21:32;;;;;;;74.65;27.13;;;;;;;2.37;88.39;97039.50;6075544;23;20006;-80
2022/04/06 04:40:07;;;;;;;92.60;29.55;;;;;;;3.36;88.82;97135.97;6240617;22;20076;-91
2022/04/06 04:42:44;;;;;;;70.80;24.40;;;;;;;3.21;88.14;97076.69;6211042;23;20020;-91
2022/04/06 04:45:11;;;;;;;64.03;21.17;;;;;;;3.44;87.74;97105.69;6192019;23;20040;-88
2022/04/06 04:47:37;;;;;;;71.75;24.55;;;;;;;3.50;86.75;97099.28;6166875;23;20004;-89
2022/04/06 04:50:04;;;;;;;68.35;20.20;;;;;;;3.79;85.69;97122.72;6164857;23;20406;-89
2022/04/06 04:52:30;;;;;;;89.45;24.83;;;;;;;4.03;83.99;97134.91;6215933;23;20015;-89
2022/04/06 04:54:55;;;;;;;63.55;23.13;;;;;;;4.14;82.20;97105.34;6191844;23;20465;-85
2022/04/06 04:57:21;;;;;;;89.13;23.75;;;;;;;4.70;79.95;97118.69;6218801;23;20009;-88
2022/04/06 04:59:47;;;;;;;63.53;21.20;;;;;;;5.38;77.12;97095.06;6191911;23;20357;-88
2022/04/06 05:02:15;;;;;;;69.55;22.70;;;;;;;5.66;74.33;97078.66;6199308;23;20039;-89
2022/04/06 05:04:41;;;;;;;69.05;21.50;;;;;;;6.32;71.58;97130.16;6169850;23;20423;-89
2022/04/06 05:07:10;;;;;;;40.08;16.70;;;;;;;6.43;69.10;97106.53;6168547;23;20080;-87
2022/04/06 05:09:36;;;;;;;35.95;16.38;;;;;;;6.40;69.16;97133.25;6190201;23;20009;-81
2022/04/06 05:12:01;;;;;;;54.95;17.08;;;;;;;6.18;69.94;97142.44;6212289;23;20079;-79
2022/04/06 05:14:27;;;;;;;62.58;21.00;;;;;;;6.42;70.22;97173.03;6162472;23;20382;-79
2022/04/06 05:16:53;;;;;;;47.20;19.08;;;;;;;6.61;69.38;97157.88;6187147;23;20388;-78
2022/04/06 05:19:19;;;;;;;61.03;26.63;;;;;;;6.95;68.28;97160.44;6211942;23;20088;-77
2022/04/06 05:21:45;;;;;;;49.95;19.35;;;;;;;7.04;67.07;97154.63;6162244;23;20032;-78
2022/04/06 05:24:10;;;;;;;75.18;19.30;;;;;;;7.53;65.71;97162.56;6187298;23;20015;-75
2022/04/06 05:26:36;;;;;;;45.90;18.55;;;;;;;8.39;62.66;97167.34;6186700;23;20349;-77
2022/04/06 05:29:02;;;;;;;45.75;21.13;;;;;;;8.55;60.17;97117.53;6161509;23;20023;-76
2022/04/06 05:31:29;;;;;;;57.83;18.70;;;;;;;9.60;57.58;97154.41;6186172;23;20004;-76
2022/04/06 05:33:54;;;;;;;83.10;42.05;;;;;;;10.99;53.23;97144.13;6161341;23;20020;-76
2022/04/06 05:36:20;;;;;;;37.78;17.70;;;;;;;12.37;48.55;97114.25;6186659;23;20004;-77
2022/04/06 05:38:46;;;;;;;38.97;18.23;;;;;;;14.25;44.93;97122.44;6119719;23;20083;-77
2022/04/06 05:41:11;;;;;;;55.97;19.02;;;;;;;15.35;42.05;97125.53;6094946;23;20006;-76
2022/04/06 05:43:37;;;;;;;44.63;19.20;;;;;;;16.75;39.17;97099.16;6095458;23;20434;-75
2022/04/06 05:46:03;;;;;;;67.97;18.70;;;;;;;17.30;37.56;97112.81;6095036;23;20438;-75
2022/04/06 05:48:28;;;;;;;48.42;17.02;;;;;;;17.72;36.71;97105.97;6094872;23;20373;-75
2022/04/06 05:50:54;;;;;;;43.47;16.80;;;;;;;18.28;35.39;97102.22;6119487;23;20004;-76
2022/04/06 05:53:19;;;;;;;35.25;16.88;;;;;;;17.13;36.31;97102.78;6119089;23;20009;-75
2022/04/06 05:55:47;;;;;;;33.33;14.60;;;;;;;17.60;35.86;97112.59;6118991;23;20006;-76
2022/04/06 05:58:14;;;;;;;24.45;14.05;;;;;;;17.73;35.83;97104.97;6094976;23;20010;-74
2022/04/06 06:00:40;;;;;;;28.98;13.57;;;;;;;17.95;35.21;97116.41;6119415;23;20407;-77
2022/04/06 06:03:06;;;;;;;30.45;13.68;;;;;;;17.71;35.77;97115.13;6118852;23;20025;-74
2022/04/06 06:05:31;;;;;;;39.50;15.73;;;;;;;18.59;34.22;97103.59;6094616;23;20095;-76
2022/04/06 06:07:57;;;;;;;40.03;17.17;;;;;;;18.52;34.42;97110.63;6094506;23;19997;-75
2022/04/06 06:10:23;;;;;;;34.45;14.70;;;;;;;19.32;33.40;97109.56;6094566;23;20077;-76
2022/04/06 06:12:48;;;;;;;35.88;14.32;;;;;;;19.83;32.62;97108.69;6095096;23;20016;-75
2022/04/06 06:15:15;;;;;;;23.20;13.70;;;;;;;19.38;33.01;97100.81;6094375;23;20014;-75
2022/04/06 06:17:41;;;;;;;30.98;16.98;;;;;;;20.15;32.17;97099.84;6118549;23;20033;-74
2022/04/06 06:20:07;;;;;;;37.85;18.92;;;;;;;20.06;32.51;97106.25;6094548;23;20089;-76
2022/04/06 06:22:33;;;;;;;37.10;20.13;;;;;;;20.53;31.91;97101.97;6094259;23;20097;-77
2022/04/06 06:24:59;;;;;;;40.15;21.10;;;;;;;20.69;31.32;97102.00;6094141;23;20038;-75
2022/04/06 06:27:25;;;;;;;33.30;18.23;;;;;;;19.20;33.07;97102.69;6094842;23;20075;-76
2022/04/06 06:29:51;;;;;;;38.35;18.70;;;;;;;19.35;33.01;97109.25;6095296;23;20010;-76
2022/04/06 06:32:16;;;;;;;46.78;20.58;;;;;;;19.87;32.03;97104.66;6095467;23;20017;-76
2022/04/06 06:34:42;;;;;;;38.58;18.98;;;;;;;20.05;32.35;97118.13;6095740;23;20022;-75
2022/04/06 06:37:10;;;;;;;26.15;16.95;;;;;;;20.92;31.28;97099.44;6095457;23;20118;-75
2022/04/06 06:39:36;;;;;;;40.60;16.92;;;;;;;20.40;30.93;97086.16;6095469;23;20093;-76
2022/04/06 06:42:04;;;;;;;33.67;17.30;;;;;;;19.88;32.22;97109.91;6094991;23;20049;-77
2022/04/06 06:44:29;;;;;;;38.47;16.38;;;;;;;20.52;31.40;97089.41;6094762;23;20354;-75
2022/04/06 06:46:55;;;;;;;27.95;16.05;;;;;;;21.40;30.24;97085.00;6095233;23;20005;-75
2022/04/06 06:49:20;;;;;;;31.92;18.35;;;;;;;20.72;30.90;97098.09;6119518;23;20002;-76
2022/04/06 06:51:46;;;;;;;26.00;15.52;;;;;;;21.74;29.88;97082.84;6119540;23;20026;-76
2022/04/06 06:54:11;;;;;;;29.40;14.68;;;;;;;22.20;28.92;97088.47;6095151;23;20005;-76
2022/04/06 06:56:37;;;;;;;34.20;17.10;;;;;;;21.91;28.80;97079.06;6095625;23;20518;-74
2022/04/06 06:59:03;;;;;;;28.83;13.05;;;;;;;22.94;27.06;97072.31;6120010;23;20361;-75
2022/04/06 07:01:28;;;;;;;29.88;13.40;;;;;;;22.77;26.75;97064.41;6095439;23;20461;-75
2022/04/06 07:03:54;;;;;;;27.08;13.93;;;;;;;22.81;26.57;97063.03;6095444;23;20354;-76
2022/04/06 07:06:19;;;;;;;24.48;12.68;;;;;;;23.19;26.56;97067.47;6095031;23;20006;-75
2022/04/06 07:08:45;;;;;;;24.67;13.02;;;;;;;23.13;26.12;97069.03;6095417;23;20005;-76
2022/04/06 07:11:11;;;;;;;29.17;14.40;;;;;;;23.47;26.28;97062.28;6095315;23;20001;-75
2022/04/06 07:13:37;;;;;;;32.53;14.40;;;;;;;24.16;25.73;97082.81;6119284;23;20010;-74
2022/04/06 07:16:05;;;;;;;37.40;16.85;;;;;;;24.05;25.65;97072.34;6095806;23;20014;-75
2022/04/06 07:18:31;;;;;;;25.13;13.18;;;;;;;24.60;25.50;97071.75;6095236;23;20044;-74
2022/04/06 07:20:58;;;;;;;23.00;13.50;;;;;;;23.26;25.99;97059.41;6119111;23;20187;-74
2022/04/06 07:23:24;;;;;;;20.58;13.13;;;;;;;22.39;27.84;97072.53;6095093;23;20412;-75
2022/04/06 07:25:49;;;;;;;24.17;13.13;;;;;;;23.64;26.56;97070.09;6119939;23;20001;-76
2022/04/06 07:28:15;;;;;;;27.60;12.45;;;;;;;24.87;25.43;97062.81;6095337;23;20006;-77
2022/04/06 07:30:40;;;;;;;25.55;13.93;;;;;;;25.19;24.91;97064.16;6119663;23;20016;-75
2022/04/06 07:33:09;;;;;;;19.48;12.30;;;;;;;25.04;24.89;97066.97;6094896;23;20029;-76
2022/04/06 07:35:35;;;;;;;21.05;11.75;;;;;;;25.66;24.01;97069.78;6119294;23;20097;-76
2022/04/06 07:38:01;;;;;;;21.50;12.80;;;;;;;26.71;22.95;97058.47;6119451;23;20002;-76
2022/04/06 07:40:26;;;;;;;27.52;15.75;;;;;;;26.84;22.78;97053.03;6094709;23;20009;-75
2022/04/06 07:42:52;;;;;;;14.85;8.45;;;;;;;27.45;21.76;97043.59;6094487;23;20014;-75
2022/04/06 07:45:20;;;;;;;17.92;9.38;;;;;;;27.66;21.66;97047.13;6095423;23;20097;-76
2022/04/06 07:47:47;;;;;;;20.77;10.10;;;;;;;28.53;21.31;97031.84;6119740;23;20002;-76
2022/04/06 07:50:13;;;;;;;21.85;12.23;;;;;;;28.00;21.66;97039.44;6095112;23;20067;-76
2022/04/06 07:52:40;;;;;;;22.75;15.65;;;;;;;27.15;22.49;97045.03;6094813;23;20012;-77
2022/04/06 07:55:09;;;;;;;21.13;12.13;;;;;;;27.50;21.87;97053.94;6095910;23;20397;-80
2022/04/06 07:57:36;;;;;;;20.40;13.45;;;;;;;26.83;22.40;97046.69;6095528;23;20098;-80
2022/04/06 08:00:05;;;;;;;20.17;13.07;;;;;;;26.75;22.32;97046.03;6120872;23;20005;-80
2022/04/06 08:02:32;;;;;;;17.45;8.85;;;;;;;27.29;21.98;97052.22;6095716;23;20006;-80
2022/04/06 08:04:57;;;;;;;11.60;7.85;;;;;;;27.34;21.78;97037.84;6122298;23;20002;-79
2022/04/06 08:07:23;;;;;;;7.30;5.63;;;;;;;26.87;21.99;97038.91;6097208;23;20080;-79
2022/04/06 08:09:48;;;;;;;10.15;4.85;;;;;;;26.47;22.08;97046.16;6119056;23;20021;-78
2022/04/06 08:12:14;;;;;;;8.40;5.32;;;;;;;27.20;21.41;97034.25;6094653;23;20025;-79
2022/04/06 08:14:40;;;;;;;6.68;4.97;;;;;;;29.00;20.16;97035.16;6119012;23;20013;-79
2022/04/06 08:17:05;;;;;;;14.18;6.15;;;;;;;29.35;20.32;97047.41;6095906;23;20531;-80
2022/04/06 08:19:31;;;;;;;15.23;6.13;;;;;;;29.11;20.38;97050.97;6120673;23;20002;-81
2022/04/06 08:21:57;;;;;;;9.35;6.55;;;;;;;29.29;20.28;97040.03;6121319;23;20002;-81
2022/04/06 08:24:22;;;;;;;18.88;7.72;;;;;;;30.27;19.43;97043.69;6096909;23;20006;-80
2022/04/06 08:26:48;;;;;;;12.65;7.05;;;;;;;27.58;20.94;97036.38;6119819;23;20002;-81
2022/04/06 08:29:13;;;;;;;12.30;6.57;;;;;;;28.28;20.89;97030.91;6096289;23;20006;-81
2022/04/06 08:31:39;;;;;;;18.05;6.47;;;;;;;29.91;19.37;97016.13;6094476;23;20013;-78
2022/04/06 08:34:06;;;;;;;16.95;8.35;;;;;;;28.19;21.04;97032.22;6094371;23;20056;-77
2022/04/06 08:36:34;;;;;;;18.10;7.38;;;;;;;29.12;20.17;97019.59;6094409;23;20028;-79
2022/04/06 08:39:01;;;;;;;13.82;6.38;;;;;;;30.32;19.46;97027.31;6118694;23;20012;-81
2022/04/06 08:41:28;;;;;;;10.60;5.82;;;;;;;30.12;18.88;97029.44;6118792;23;20012;-78
2022/04/06 08:43:55;;;;;;;11.48;5.15;;;;;;;30.46;18.01;97009.50;6119931;23;20016;-78
2022/04/06 08:46:21;;;;;;;12.55;5.63;;;;;;;29.08;19.28;97015.59;6094506;23;20012;-78
2022/04/06 08:48:48;;;;;;;14.93;5.93;;;;;;;29.83;18.40;97013.69;6094226;23;20527;-78
2022/04/06 08:51:16;;;;;;;4.90;3.67;;;;;;;30.53;17.43;97003.91;6094329;23;20010;-79
2022/04/06 08:53:42;;;;;;;0.52;0.52;;;;;;;30.91;17.10;97000.81;6119275;23;20006;-80
2022/04/06 08:56:08;;;;;;;1.75;0.60;;;;;;;30.14;16.72;96988.69;6118944;23;20081;-80
2022/04/06 08:58:35;;;;;;;0.00;0.00;;;;;;;30.87;16.43;96988.53;6119106;23;20016;-80
2022/04/06 09:01:00;;;;;;;0.00;0.00;;;;;;;31.54;15.72;96978.94;6118292;23;20006;-77
2022/04/06 09:03:26;;;;;;;0.00;0.00;;;;;;;31.04;15.63;96978.53;6120344;23;20103;-79
2022/04/06 09:06:06;;;;;;;0.00;0.00;;;;;;;31.63;15.16;96977.47;6118691;23;20009;-79
2022/04/06 09:08:39;;;;;;;0.00;0.00;;;;;;;32.30;14.89;96984.25;6094322;23;20101;-80
2022/04/06 09:11:08;;;;;;;0.08;0.08;;;;;;;32.47;15.49;96960.22;6095123;23;20046;-79
2022/04/06 09:13:33;;;;;;;0.55;0.30;;;;;;;30.27;16.24;96957.31;6118778;22;20033;-81
2022/04/06 09:16:00;;;;;;;0.10;0.10;;;;;;;31.69;15.47;96971.81;6094039;23;20021;-80
2022/04/06 09:18:48;;;;;;;0.80;0.80;;;;;;;31.46;15.64;96968.22;6118865;23;20006;-80
2022/04/06 09:21:16;;;;;;;0.80;0.47;;;;;;;29.27;16.75;96964.16;6096117;23;20006;-80
2022/04/06 09:23:45;;;;;;;0.10;0.10;;;;;;;29.23;16.99;96957.38;6120815;23;20032;-80
2022/04/06 09:26:11;;;;;;;0.00;0.00;;;;;;;30.55;16.75;96947.34;6094238;23;20093;-79
2022/04/06 09:28:41;;;;;;;0.00;0.00;;;;;;;31.78;16.23;96969.53;6118346;23;20005;-80
2022/04/06 09:31:08;;;;;;;0.00;0.00;;;;;;;32.83;15.64;96955.34;6118782;23;20105;-79
2022/04/06 09:33:39;;;;;;;0.00;0.00;;;;;;;31.67;16.10;96946.34;6119258;23;20018;-79
2022/04/06 09:36:17;;;;;;;0.10;0.10;;;;;;;32.26;15.68;96952.59;6119558;23;20504;-79
2022/04/06 09:38:49;;;;;;;0.10;0.10;;;;;;;32.30;15.80;96951.03;6120179;23;20393;-81
2022/04/06 09:41:15;;;;;;;0.00;0.00;;;;;;;31.49;16.49;96946.47;6095658;23;20010;-81
2022/04/06 09:43:41;;;;;;;0.10;0.10;;;;;;;31.25;16.59;96942.00;6095736;23;20039;-81
2022/04/06 09:49:18;;;;;;;0.00;0.00;;;;;;;31.10;16.81;96927.81;6119450;23;20017;-80
2022/04/06 09:51:46;;;;;;;0.00;0.00;;;;;;;31.26;17.11;96938.13;6094500;23;20010;-80
2022/04/06 09:54:12;;;;;;;0.00;0.00;;;;;;;32.48;16.13;96925.91;6095507;23;20014;-81
2022/04/06 09:56:39;;;;;;;0.32;0.17;;;;;;;32.90;16.19;96922.78;6120551;23;20010;-80
2022/04/06 09:59:05;;;;;;;0.00;0.00;;;;;;;31.09;17.32;96915.06;6120575;23;20017;-80
2022/04/06 10:01:45;;;;;;;0.00;0.00;;;;;;;31.97;16.86;96917.63;6095188;23;20412;-80
2022/04/06 10:04:12;;;;;;;0.10;0.10;;;;;;;30.10;17.49;96907.44;6094184;23;20038;-78
2022/04/06 10:06:39;;;;;;;0.10;0.10;;;;;;;31.42;17.42;96909.78;6094725;23;20036;-79
2022/04/06 10:09:10;;;;;;;0.00;0.00;;;;;;;31.08;17.40;96913.38;6093815;23;20357;-80
2022/04/06 10:11:36;;;;;;;0.10;0.10;;;;;;;30.06;17.72;96897.94;6118955;23;20009;-81
2022/04/06 10:14:04;;;;;;;0.00;0.00;;;;;;;30.70;17.63;96910.19;6094752;23;20017;-80
2022/04/06 10:16:31;;;;;;;0.08;0.08;;;;;;;31.06;17.13;96893.44;6119175;23;20014;-80
2022/04/06 10:18:58;;;;;;;0.20;0.10;;;;;;;29.84;17.65;96891.25;6118775;23;20029;-80
2022/04/06 10:21:42;;;;;;;0.25;0.25;;;;;;;30.43;16.97;96896.78;6094433;23;20002;-80
2022/04/06 10:24:17;;;;;;;0.00;0.00;;;;;;;30.95;17.16;96883.22;6117971;22;20361;-79
2022/04/06 10:27:10;;;;;;;0.13;0.13;;;;;;;31.83;16.49;96883.03;6119767;22;20002;-81
2022/04/06 10:30:13;;;;;;;0.03;0.03;;;;;;;33.67;15.53;96880.22;6118174;23;20512;-81
2022/04/06 10:32:43;;;;;;;0.00;0.00;;;;;;;34.48;14.65;96874.81;6119018;22;20001;-81
2022/04/06 10:35:31;;;;;;;0.05;0.05;;;;;;;34.28;15.23;96872.66;6119010;23;20089;-82
2022/04/06 10:37:58;;;;;;;0.10;0.10;;;;;;;34.90;14.59;96872.16;6118207;23;20006;-80
2022/04/06 10:40:24;;;;;;;0.00;0.00;;;;;;;35.08;14.50;96872.59;6120551;23;20006;-82
2022/04/06 10:42:50;;;;;;;0.35;0.25;;;;;;;34.92;14.54;96859.66;6119280;23;20460;-81
2022/04/06 10:45:25;;;;;;;0.00;0.00;;;;;;;32.60;15.74;96859.38;6094159;23;20028;-79
2022/04/06 10:48:18;;;;;;;0.00;0.00;;;;;;;33.29;15.99;96860.78;6118493;22;20406;-80
2022/04/06 10:50:45;;;;;;;0.20;0.20;;;;;;;33.05;16.65;96860.13;6093696;23;20009;-80
2022/04/06 10:53:29;;;;;;;0.20;0.20;;;;;;;33.42;16.09;96846.56;6117839;22;20063;-81
2022/04/06 10:56:06;;;;;;;0.00;0.00;;;;;;;32.85;15.83;96845.09;6118021;23;20013;-80
2022/04/06 10:58:56;;;;;;;0.20;0.20;;;;;;;31.85;17.21;96831.88;6117935;23;20006;-80
2022/04/06 11:01:32;;;;;;;0.10;0.10;;;;;;;31.11;17.06;96832.75;6117544;22;20369;-79
2022/04/06 11:04:05;;;;;;;1.20;0.70;;;;;;;31.48;16.73;96831.38;6117479;23;20441;-79
2022/04/06 11:07:04;;;;;;;0.00;0.00;;;;;;;29.20;18.43;96842.09;6118909;23;20067;-80
2022/04/06 11:12:25;;;;;;;0.08;0.08;;;;;;;30.77;17.41;96828.03;6119559;23;20012;-82
2022/04/06 11:15:10;;;;;;;0.00;0.00;;;;;;;31.74;16.74;96813.41;6117527;23;20452;-81
2022/04/06 11:17:48;;;;;;;0.90;0.43;;;;;;;33.20;15.56;96817.94;6135536;23;20067;-81
2022/04/06 11:20:21;;;;;;;0.00;0.00;;;;;;;33.92;15.40;96809.47;6096929;23;20006;-80
2022/04/06 11:22:46;;;;;;;0.00;0.00;;;;;;;34.12;14.82;96804.16;6095141;23;20005;-80
2022/04/06 11:25:14;;;;;;;0.10;0.10;;;;;;;34.98;14.35;96800.22;6120591;23;20051;-80
2022/04/06 11:27:41;;;;;;;0.00;0.00;;;;;;;35.19;14.44;96792.88;6094294;23;20002;-79
2022/04/06 11:30:15;;;;;;;0.00;0.00;;;;;;;36.46;13.77;96794.19;6094385;23;20009;-79
2022/04/06 11:32:45;;;;;;;2.40;1.58;;;;;;;35.39;13.83;96781.84;6119437;23;20009;-79
2022/04/06 11:35:12;;;;;;;1.08;0.28;;;;;;;33.96;14.97;96774.53;6095061;23;20014;-80
2022/04/06 11:37:46;;;;;;;0.03;0.03;;;;;;;34.23;15.05;96783.72;6093971;23;20113;-80
2022/04/06 11:40:13;;;;;;;0.00;0.00;;;;;;;35.28;14.10;96780.97;6119683;23;20062;-80
2022/04/06 11:42:39;;;;;;;21.17;0.88;;;;;;;33.04;15.15;96758.63;6094511;23;20005;-80
2022/04/06 11:45:06;;;;;;;0.20;0.20;;;;;;;33.83;15.02;96772.16;6119193;23;20360;-80
2022/04/06 11:47:33;;;;;;;0.05;0.05;;;;;;;35.03;14.56;96760.47;6121249;23;20002;-79
2022/04/06 11:50:00;;;;;;;0.10;0.10;;;;;;;34.41;15.40;96772.22;6119054;23;20060;-79
2022/04/06 11:52:26;;;;;;;0.00;0.00;;;;;;;34.83;14.81;96756.47;6094433;23;20084;-79
2022/04/06 11:54:53;;;;;;;0.00;0.00;;;;;;;34.91;14.55;96757.06;6119357;23;20045;-79
2022/04/06 11:57:20;;;;;;;0.03;0.03;;;;;;;34.08;15.03;96753.00;6094360;23;20010;-79
2022/04/06 11:59:55;;;;;;;0.00;0.00;;;;;;;33.70;15.91;96742.88;6094467;23;20012;-80
2022/04/06 12:02:21;;;;;;;0.00;0.00;;;;;;;33.63;15.92;96734.75;6118769;23;20009;-80
2022/04/06 12:05:04;;;;;;;0.00;0.00;;;;;;;34.55;15.97;96737.31;6094198;23;20438;-78
2022/04/06 12:07:30;;;;;;;0.35;0.30;;;;;;;33.09;15.89;96738.50;6119198;23;20093;-80
2022/04/06 12:09:55;;;;;;;0.00;0.00;;;;;;;33.83;15.51;96741.63;6094609;23;20006;-80
2022/04/06 12:12:23;;;;;;;0.00;0.00;;;;;;;33.94;15.23;96733.16;6094597;23;20453;-80
2022/04/06 12:14:50;;;;;;;0.00;0.00;;;;;;;34.73;14.64;96728.59;6094713;23;20378;-81
2022/04/06 12:17:16;;;;;;;0.00;0.00;;;;;;;35.18;14.29;96718.88;6120476;23;20028;-81
2022/04/06 12:19:42;;;;;;;0.00;0.00;;;;;;;36.51;13.83;96721.72;6119017;23;20002;-81